sensor_id;sensor_type;location;lat;lon;timestamp;P1;durP1;ratioP1;P2;durP2;ratioP2
47737;SDS011;33502;47.182;27.506;2022-09-09T00:00:54;14.45;;;11.32;;
47737;SDS011;33502;47.182;27.506;2022-09-09T00:03:26;15.95;;;10.38;;
47737;SDS011;33502;47.182;27.506;2022-09-09T00:09:12;17.77;;;10.30;;
47737;SDS011;33502;47.182;27.506;2022-09-09T00:12:06;17.48;;;9.27;;
47737;SDS011;33502;47.182;27.506;2022-09-09T00:14:38;13.80;;;10.40;;
47737;SDS011;33502;47.182;27.506;2022-09-09T00:17:11;13.98;;;10.27;;
47737;SDS011;33502;47.182;27.506;2022-09-09T00:19:42;17.27;;;10.50;;
47737;SDS011;33502;47.182;27.506;2022-09-09T00:22:19;17.63;;;12.23;;
47737;SDS011;33502;47.182;27.506;2022-09-09T00:24:51;16.80;;;11.73;;
47737;SDS011;33502;47.182;27.506;2022-09-09T00:27:21;19.17;;;11.75;;
47737;SDS011;33502;47.182;27.506;2022-09-09T00:30:12;14.05;;;10.98;;
47737;SDS011;33502;47.182;27.506;2022-09-09T00:32:41;17.42;;;11.55;;
47737;SDS011;33502;47.182;27.506;2022-09-09T00:35:21;17.50;;;11.98;;
47737;SDS011;33502;47.182;27.506;2022-09-09T00:37:51;15.63;;;11.70;;
47737;SDS011;33502;47.182;27.506;2022-09-09T00:48:22;16.50;;;11.27;;
47737;SDS011;33502;47.182;27.506;2022-09-09T00:51:15;16.70;;;11.45;;
47737;SDS011;33502;47.182;27.506;2022-09-09T00:56:38;16.27;;;11.55;;
47737;SDS011;33502;47.182;27.506;2022-09-09T00:59:21;22.73;;;11.60;;
47737;SDS011;33502;47.182;27.506;2022-09-09T01:01:57;16.40;;;11.27;;
47737;SDS011;33502;47.182;27.506;2022-09-09T01:04:27;17.60;;;10.82;;
47737;SDS011;33502;47.182;27.506;2022-09-09T01:07:02;14.23;;;10.70;;
47737;SDS011;33502;47.182;27.506;2022-09-09T01:09:42;16.13;;;11.35;;
47737;SDS011;33502;47.182;27.506;2022-09-09T01:12:39;15.75;;;11.05;;
47737;SDS011;33502;47.182;27.506;2022-09-09T01:17:55;11.63;;;10.18;;
47737;SDS011;33502;47.182;27.506;2022-09-09T01:20:29;15.88;;;10.15;;
47737;SDS011;33502;47.182;27.506;2022-09-09T01:28:45;18.35;;;11.13;;
47737;SDS011;33502;47.182;27.506;2022-09-09T01:31:17;13.02;;;9.77;;
47737;SDS011;33502;47.182;27.506;2022-09-09T01:33:47;13.93;;;10.75;;
47737;SDS011;33502;47.182;27.506;2022-09-09T01:38:47;11.02;;;9.57;;
47737;SDS011;33502;47.182;27.506;2022-09-09T01:41:14;12.45;;;10.13;;
47737;SDS011;33502;47.182;27.506;2022-09-09T01:43:46;14.10;;;10.85;;
47737;SDS011;33502;47.182;27.506;2022-09-09T01:46:13;15.60;;;10.50;;
47737;SDS011;33502;47.182;27.506;2022-09-09T01:48:40;15.00;;;10.43;;
47737;SDS011;33502;47.182;27.506;2022-09-09T01:51:09;13.60;;;9.95;;
47737;SDS011;33502;47.182;27.506;2022-09-09T01:53:38;12.43;;;9.40;;
47737;SDS011;33502;47.182;27.506;2022-09-09T02:07:51;14.82;;;10.00;;
47737;SDS011;33502;47.182;27.506;2022-09-09T02:10:25;14.25;;;9.77;;
47737;SDS011;33502;47.182;27.506;2022-09-09T02:13:10;11.13;;;9.10;;
47737;SDS011;33502;47.182;27.506;2022-09-09T02:18:11;15.95;;;9.90;;
47737;SDS011;33502;47.182;27.506;2022-09-09T02:20:39;16.67;;;9.00;;
47737;SDS011;33502;47.182;27.506;2022-09-09T02:23:07;12.73;;;9.60;;
47737;SDS011;33502;47.182;27.506;2022-09-09T02:25:36;12.80;;;9.93;;
47737;SDS011;33502;47.182;27.506;2022-09-09T02:28:13;16.30;;;10.70;;
47737;SDS011;33502;47.182;27.506;2022-09-09T02:30:41;13.77;;;9.55;;
47737;SDS011;33502;47.182;27.506;2022-09-09T02:33:13;18.65;;;10.35;;
47737;SDS011;33502;47.182;27.506;2022-09-09T02:35:44;14.02;;;10.23;;
47737;SDS011;33502;47.182;27.506;2022-09-09T02:38:14;17.42;;;10.75;;
47737;SDS011;33502;47.182;27.506;2022-09-09T02:40:51;14.38;;;10.80;;
47737;SDS011;33502;47.182;27.506;2022-09-09T02:43:17;13.77;;;9.88;;
47737;SDS011;33502;47.182;27.506;2022-09-09T02:45:47;15.25;;;11.00;;
47737;SDS011;33502;47.182;27.506;2022-09-09T02:48:27;15.80;;;10.48;;
47737;SDS011;33502;47.182;27.506;2022-09-09T02:51:38;12.68;;;10.05;;
47737;SDS011;33502;47.182;27.506;2022-09-09T02:56:54;9.85;;;8.15;;
47737;SDS011;33502;47.182;27.506;2022-09-09T02:59:30;15.50;;;9.95;;
47737;SDS011;33502;47.182;27.506;2022-09-09T03:01:56;16.25;;;9.65;;
47737;SDS011;33502;47.182;27.506;2022-09-09T03:04:23;12.57;;;9.57;;
47737;SDS011;33502;47.182;27.506;2022-09-09T03:06:50;16.40;;;9.77;;
47737;SDS011;33502;47.182;27.506;2022-09-09T03:09:19;13.98;;;9.73;;
47737;SDS011;33502;47.182;27.506;2022-09-09T03:11:45;14.77;;;10.18;;
47737;SDS011;33502;47.182;27.506;2022-09-09T03:14:12;14.70;;;9.35;;
47737;SDS011;33502;47.182;27.506;2022-09-09T03:16:39;13.68;;;9.57;;
47737;SDS011;33502;47.182;27.506;2022-09-09T03:19:05;11.75;;;9.65;;
47737;SDS011;33502;47.182;27.506;2022-09-09T03:21:32;13.38;;;9.50;;
47737;SDS011;33502;47.182;27.506;2022-09-09T03:23:58;11.43;;;10.10;;
47737;SDS011;33502;47.182;27.506;2022-09-09T03:26:24;13.10;;;10.57;;
47737;SDS011;33502;47.182;27.506;2022-09-09T03:28:50;15.38;;;10.45;;
47737;SDS011;33502;47.182;27.506;2022-09-09T03:31:19;15.55;;;9.57;;
47737;SDS011;33502;47.182;27.506;2022-09-09T03:33:46;12.30;;;9.80;;
47737;SDS011;33502;47.182;27.506;2022-09-09T03:36:14;12.80;;;9.18;;
47737;SDS011;33502;47.182;27.506;2022-09-09T03:38:40;16.38;;;10.65;;
47737;SDS011;33502;47.182;27.506;2022-09-09T03:41:07;11.55;;;9.95;;
47737;SDS011;33502;47.182;27.506;2022-09-09T03:43:33;14.35;;;10.35;;
47737;SDS011;33502;47.182;27.506;2022-09-09T03:45:59;14.43;;;10.65;;
47737;SDS011;33502;47.182;27.506;2022-09-09T03:48:26;14.18;;;10.65;;
47737;SDS011;33502;47.182;27.506;2022-09-09T03:50:54;17.33;;;10.95;;
47737;SDS011;33502;47.182;27.506;2022-09-09T03:53:22;18.48;;;10.60;;
47737;SDS011;33502;47.182;27.506;2022-09-09T03:55:51;19.38;;;10.98;;
47737;SDS011;33502;47.182;27.506;2022-09-09T03:58:22;14.77;;;10.90;;
47737;SDS011;33502;47.182;27.506;2022-09-09T04:00:57;21.05;;;11.30;;
47737;SDS011;33502;47.182;27.506;2022-09-09T04:03:39;17.70;;;11.43;;
47737;SDS011;33502;47.182;27.506;2022-09-09T04:06:07;21.27;;;11.65;;
47737;SDS011;33502;47.182;27.506;2022-09-09T04:08:35;19.80;;;11.05;;
47737;SDS011;33502;47.182;27.506;2022-09-09T04:11:03;16.33;;;11.18;;
47737;SDS011;33502;47.182;27.506;2022-09-09T04:13:32;21.40;;;10.93;;
47737;SDS011;33502;47.182;27.506;2022-09-09T04:16:04;16.58;;;11.80;;
47737;SDS011;33502;47.182;27.506;2022-09-09T04:18:30;18.23;;;11.10;;
47737;SDS011;33502;47.182;27.506;2022-09-09T04:20:56;16.45;;;10.30;;
47737;SDS011;33502;47.182;27.506;2022-09-09T04:23:26;18.98;;;11.20;;
47737;SDS011;33502;47.182;27.506;2022-09-09T04:25:58;20.38;;;9.95;;
47737;SDS011;33502;47.182;27.506;2022-09-09T04:28:26;16.63;;;10.00;;
47737;SDS011;33502;47.182;27.506;2022-09-09T04:30:57;19.30;;;10.25;;
47737;SDS011;33502;47.182;27.506;2022-09-09T04:35:55;15.75;;;9.18;;
47737;SDS011;33502;47.182;27.506;2022-09-09T04:38:24;16.52;;;9.75;;
47737;SDS011;33502;47.182;27.506;2022-09-09T04:40:52;18.10;;;9.63;;
47737;SDS011;33502;47.182;27.506;2022-09-09T04:43:19;19.73;;;10.60;;
47737;SDS011;33502;47.182;27.506;2022-09-09T04:45:47;18.27;;;10.15;;
47737;SDS011;33502;47.182;27.506;2022-09-09T04:48:14;15.82;;;8.90;;
47737;SDS011;33502;47.182;27.506;2022-09-09T04:50:41;18.45;;;9.85;;
47737;SDS011;33502;47.182;27.506;2022-09-09T04:53:08;15.73;;;8.85;;
47737;SDS011;33502;47.182;27.506;2022-09-09T04:55:37;13.98;;;8.88;;
47737;SDS011;33502;47.182;27.506;2022-09-09T04:58:04;12.68;;;9.63;;
47737;SDS011;33502;47.182;27.506;2022-09-09T05:00:31;21.25;;;9.98;;
47737;SDS011;33502;47.182;27.506;2022-09-09T05:02:57;22.67;;;9.95;;
47737;SDS011;33502;47.182;27.506;2022-09-09T05:05:24;15.50;;;9.10;;
47737;SDS011;33502;47.182;27.506;2022-09-09T05:07:51;14.80;;;9.20;;
47737;SDS011;33502;47.182;27.506;2022-09-09T05:10:18;17.10;;;8.63;;
47737;SDS011;33502;47.182;27.506;2022-09-09T05:12:51;11.55;;;8.38;;
47737;SDS011;33502;47.182;27.506;2022-09-09T05:15:18;14.95;;;8.02;;
47737;SDS011;33502;47.182;27.506;2022-09-09T05:17:46;13.90;;;8.55;;
47737;SDS011;33502;47.182;27.506;2022-09-09T05:20:13;12.00;;;7.97;;
47737;SDS011;33502;47.182;27.506;2022-09-09T05:22:39;17.63;;;7.70;;
47737;SDS011;33502;47.182;27.506;2022-09-09T05:25:06;8.73;;;7.28;;
47737;SDS011;33502;47.182;27.506;2022-09-09T05:27:34;14.23;;;7.45;;
47737;SDS011;33502;47.182;27.506;2022-09-09T05:30:00;11.88;;;7.57;;
47737;SDS011;33502;47.182;27.506;2022-09-09T05:32:26;11.88;;;7.68;;
47737;SDS011;33502;47.182;27.506;2022-09-09T05:34:52;13.02;;;8.20;;
47737;SDS011;33502;47.182;27.506;2022-09-09T05:37:18;15.95;;;7.88;;
47737;SDS011;33502;47.182;27.506;2022-09-09T05:39:44;22.95;;;7.47;;
47737;SDS011;33502;47.182;27.506;2022-09-09T05:42:10;13.82;;;7.28;;
47737;SDS011;33502;47.182;27.506;2022-09-09T05:44:37;18.23;;;6.55;;
47737;SDS011;33502;47.182;27.506;2022-09-09T05:47:03;12.05;;;7.30;;
47737;SDS011;33502;47.182;27.506;2022-09-09T05:49:28;14.13;;;7.90;;
47737;SDS011;33502;47.182;27.506;2022-09-09T05:51:54;10.85;;;6.50;;
47737;SDS011;33502;47.182;27.506;2022-09-09T05:54:22;10.77;;;7.28;;
47737;SDS011;33502;47.182;27.506;2022-09-09T05:56:51;12.63;;;7.78;;
47737;SDS011;33502;47.182;27.506;2022-09-09T05:59:19;13.27;;;6.43;;
47737;SDS011;33502;47.182;27.506;2022-09-09T06:01:45;9.82;;;6.93;;
47737;SDS011;33502;47.182;27.506;2022-09-09T06:04:21;15.48;;;7.55;;
47737;SDS011;33502;47.182;27.506;2022-09-09T06:06:48;13.48;;;8.57;;
47737;SDS011;33502;47.182;27.506;2022-09-09T06:09:17;14.43;;;7.75;;
47737;SDS011;33502;47.182;27.506;2022-09-09T06:11:43;14.23;;;7.85;;
47737;SDS011;33502;47.182;27.506;2022-09-09T06:14:10;13.60;;;7.90;;
47737;SDS011;33502;47.182;27.506;2022-09-09T06:16:37;11.38;;;7.50;;
47737;SDS011;33502;47.182;27.506;2022-09-09T06:19:05;11.88;;;7.57;;
47737;SDS011;33502;47.182;27.506;2022-09-09T06:21:36;15.35;;;7.63;;
47737;SDS011;33502;47.182;27.506;2022-09-09T06:24:03;11.68;;;6.72;;
47737;SDS011;33502;47.182;27.506;2022-09-09T06:26:39;12.18;;;7.20;;
47737;SDS011;33502;47.182;27.506;2022-09-09T06:29:07;12.75;;;7.18;;
47737;SDS011;33502;47.182;27.506;2022-09-09T06:31:35;9.82;;;7.40;;
47737;SDS011;33502;47.182;27.506;2022-09-09T06:34:11;9.15;;;7.43;;
47737;SDS011;33502;47.182;27.506;2022-09-09T06:36:40;12.15;;;7.43;;
47737;SDS011;33502;47.182;27.506;2022-09-09T06:39:07;15.52;;;8.15;;
47737;SDS011;33502;47.182;27.506;2022-09-09T06:41:36;13.98;;;7.68;;
47737;SDS011;33502;47.182;27.506;2022-09-09T06:46:39;13.77;;;7.78;;
47737;SDS011;33502;47.182;27.506;2022-09-09T06:49:06;10.52;;;7.50;;
47737;SDS011;33502;47.182;27.506;2022-09-09T06:51:35;11.30;;;7.03;;
47737;SDS011;33502;47.182;27.506;2022-09-09T06:54:03;14.85;;;7.25;;
47737;SDS011;33502;47.182;27.506;2022-09-09T06:56:37;10.20;;;6.60;;
47737;SDS011;33502;47.182;27.506;2022-09-09T06:59:12;17.35;;;7.80;;
47737;SDS011;33502;47.182;27.506;2022-09-09T07:01:40;12.38;;;6.65;;
47737;SDS011;33502;47.182;27.506;2022-09-09T07:04:12;12.13;;;6.63;;
47737;SDS011;33502;47.182;27.506;2022-09-09T07:06:41;8.85;;;6.40;;
47737;SDS011;33502;47.182;27.506;2022-09-09T07:09:12;10.38;;;6.20;;
47737;SDS011;33502;47.182;27.506;2022-09-09T07:11:46;11.27;;;6.18;;
47737;SDS011;33502;47.182;27.506;2022-09-09T07:14:15;12.43;;;6.65;;
47737;SDS011;33502;47.182;27.506;2022-09-09T07:16:44;11.50;;;6.25;;
47737;SDS011;33502;47.182;27.506;2022-09-09T07:19:12;13.02;;;6.97;;
47737;SDS011;33502;47.182;27.506;2022-09-09T07:21:40;14.85;;;6.75;;
47737;SDS011;33502;47.182;27.506;2022-09-09T07:24:08;12.75;;;6.50;;
47737;SDS011;33502;47.182;27.506;2022-09-09T07:26:37;9.30;;;6.63;;
47737;SDS011;33502;47.182;27.506;2022-09-09T07:29:04;12.00;;;6.55;;
47737;SDS011;33502;47.182;27.506;2022-09-09T07:31:31;15.48;;;6.85;;
47737;SDS011;33502;47.182;27.506;2022-09-09T07:34:00;10.50;;;5.80;;
47737;SDS011;33502;47.182;27.506;2022-09-09T07:36:28;13.63;;;7.03;;
47737;SDS011;33502;47.182;27.506;2022-09-09T07:38:57;16.67;;;6.93;;
47737;SDS011;33502;47.182;27.506;2022-09-09T07:41:27;10.82;;;6.18;;
47737;SDS011;33502;47.182;27.506;2022-09-09T07:43:55;38.17;;;9.93;;
47737;SDS011;33502;47.182;27.506;2022-09-09T07:46:22;15.45;;;6.93;;
47737;SDS011;33502;47.182;27.506;2022-09-09T07:48:50;12.13;;;5.80;;
47737;SDS011;33502;47.182;27.506;2022-09-09T07:51:26;13.13;;;6.43;;
47737;SDS011;33502;47.182;27.506;2022-09-09T07:53:55;12.23;;;6.07;;
47737;SDS011;33502;47.182;27.506;2022-09-09T07:56:28;11.23;;;6.53;;
47737;SDS011;33502;47.182;27.506;2022-09-09T07:58:56;9.88;;;5.88;;
47737;SDS011;33502;47.182;27.506;2022-09-09T08:01:26;7.25;;;5.93;;
47737;SDS011;33502;47.182;27.506;2022-09-09T08:04:02;8.18;;;5.75;;
47737;SDS011;33502;47.182;27.506;2022-09-09T08:06:32;13.60;;;5.90;;
47737;SDS011;33502;47.182;27.506;2022-09-09T08:09:00;6.78;;;5.45;;
47737;SDS011;33502;47.182;27.506;2022-09-09T08:11:27;10.95;;;5.57;;
47737;SDS011;33502;47.182;27.506;2022-09-09T08:13:55;13.27;;;5.35;;
47737;SDS011;33502;47.182;27.506;2022-09-09T08:16:23;20.00;;;6.82;;
47737;SDS011;33502;47.182;27.506;2022-09-09T08:18:51;12.80;;;5.38;;
47737;SDS011;33502;47.182;27.506;2022-09-09T08:21:21;8.02;;;5.10;;
47737;SDS011;33502;47.182;27.506;2022-09-09T08:23:54;9.32;;;5.00;;
47737;SDS011;33502;47.182;27.506;2022-09-09T08:26:25;11.02;;;5.07;;
47737;SDS011;33502;47.182;27.506;2022-09-09T08:28:54;9.27;;;5.45;;
47737;SDS011;33502;47.182;27.506;2022-09-09T08:31:23;7.55;;;4.88;;
47737;SDS011;33502;47.182;27.506;2022-09-09T08:33:50;8.85;;;5.65;;
47737;SDS011;33502;47.182;27.506;2022-09-09T08:36:17;6.38;;;4.68;;
47737;SDS011;33502;47.182;27.506;2022-09-09T08:38:49;8.30;;;5.28;;
47737;SDS011;33502;47.182;27.506;2022-09-09T08:43:50;8.80;;;5.30;;
47737;SDS011;33502;47.182;27.506;2022-09-09T08:51:48;11.70;;;5.00;;
47737;SDS011;33502;47.182;27.506;2022-09-09T08:54:15;12.70;;;4.88;;
47737;SDS011;33502;47.182;27.506;2022-09-09T08:56:42;6.65;;;3.75;;
47737;SDS011;33502;47.182;27.506;2022-09-09T08:59:10;8.65;;;4.95;;
47737;SDS011;33502;47.182;27.506;2022-09-09T09:01:42;8.50;;;4.43;;
47737;SDS011;33502;47.182;27.506;2022-09-09T09:12:50;11.05;;;4.80;;
47737;SDS011;33502;47.182;27.506;2022-09-09T09:15:20;5.93;;;4.20;;
47737;SDS011;33502;47.182;27.506;2022-09-09T09:17:51;5.38;;;4.05;;
47737;SDS011;33502;47.182;27.506;2022-09-09T09:20:18;5.47;;;4.80;;
47737;SDS011;33502;47.182;27.506;2022-09-09T09:22:55;7.60;;;4.90;;
47737;SDS011;33502;47.182;27.506;2022-09-09T09:25:31;6.03;;;4.03;;
47737;SDS011;33502;47.182;27.506;2022-09-09T09:28:12;9.02;;;4.90;;
47737;SDS011;33502;47.182;27.506;2022-09-09T09:30:46;7.70;;;5.15;;
47737;SDS011;33502;47.182;27.506;2022-09-09T09:36:09;9.38;;;5.70;;
47737;SDS011;33502;47.182;27.506;2022-09-09T09:38:39;8.25;;;5.50;;
47737;SDS011;33502;47.182;27.506;2022-09-09T09:41:06;10.13;;;5.50;;
47737;SDS011;33502;47.182;27.506;2022-09-09T09:43:33;9.23;;;5.10;;
47737;SDS011;33502;47.182;27.506;2022-09-09T09:46:04;6.78;;;5.63;;
47737;SDS011;33502;47.182;27.506;2022-09-09T09:48:31;10.90;;;5.68;;
47737;SDS011;33502;47.182;27.506;2022-09-09T09:50:59;7.65;;;5.28;;
47737;SDS011;33502;47.182;27.506;2022-09-09T09:53:36;8.20;;;5.55;;
47737;SDS011;33502;47.182;27.506;2022-09-09T09:56:05;9.50;;;5.35;;
47737;SDS011;33502;47.182;27.506;2022-09-09T09:58:55;9.10;;;4.95;;
47737;SDS011;33502;47.182;27.506;2022-09-09T10:01:27;8.38;;;5.75;;
47737;SDS011;33502;47.182;27.506;2022-09-09T10:06:53;6.03;;;5.25;;
47737;SDS011;33502;47.182;27.506;2022-09-09T10:09:21;12.77;;;5.35;;
47737;SDS011;33502;47.182;27.506;2022-09-09T10:14:45;5.93;;;5.18;;
47737;SDS011;33502;47.182;27.506;2022-09-09T10:17:37;6.90;;;5.18;;
47737;SDS011;33502;47.182;27.506;2022-09-09T10:23:42;8.20;;;5.68;;
47737;SDS011;33502;47.182;27.506;2022-09-09T10:40:48;10.95;;;5.50;;
47737;SDS011;33502;47.182;27.506;2022-09-09T10:55:16;10.43;;;7.40;;
47737;SDS011;33502;47.182;27.506;2022-09-09T10:57:28;8.07;;;6.68;;
47737;SDS011;33502;47.182;27.506;2022-09-09T11:00:21;9.13;;;7.47;;
47737;SDS011;33502;47.182;27.506;2022-09-09T11:02:57;9.48;;;6.30;;
47737;SDS011;33502;47.182;27.506;2022-09-09T11:05:28;10.35;;;6.60;;
47737;SDS011;33502;47.182;27.506;2022-09-09T11:10:51;15.57;;;7.70;;
47737;SDS011;33502;47.182;27.506;2022-09-09T11:13:37;10.80;;;6.95;;
47737;SDS011;33502;47.182;27.506;2022-09-09T11:18:42;11.07;;;7.70;;
47737;SDS011;33502;47.182;27.506;2022-09-09T11:21:32;13.63;;;7.72;;
47737;SDS011;33502;47.182;27.506;2022-09-09T11:24:04;7.82;;;6.32;;
47737;SDS011;33502;47.182;27.506;2022-09-09T11:26:44;9.88;;;6.97;;
47737;SDS011;33502;47.182;27.506;2022-09-09T11:29:52;8.98;;;6.72;;
47737;SDS011;33502;47.182;27.506;2022-09-09T11:40:58;9.70;;;6.90;;
47737;SDS011;33502;47.182;27.506;2022-09-09T11:43:30;7.25;;;6.13;;
47737;SDS011;33502;47.182;27.506;2022-09-09T11:46:00;8.35;;;6.35;;
47737;SDS011;33502;47.182;27.506;2022-09-09T11:48:37;8.05;;;5.82;;
47737;SDS011;33502;47.182;27.506;2022-09-09T11:51:09;9.70;;;5.77;;
47737;SDS011;33502;47.182;27.506;2022-09-09T11:53:48;8.93;;;7.22;;
47737;SDS011;33502;47.182;27.506;2022-09-09T11:56:23;9.73;;;6.10;;
47737;SDS011;33502;47.182;27.506;2022-09-09T11:58:57;10.18;;;6.63;;
47737;SDS011;33502;47.182;27.506;2022-09-09T12:01:43;8.40;;;6.00;;
47737;SDS011;33502;47.182;27.506;2022-09-09T12:06:46;11.32;;;6.20;;
47737;SDS011;33502;47.182;27.506;2022-09-09T12:09:27;9.68;;;6.50;;
47737;SDS011;33502;47.182;27.506;2022-09-09T12:12:05;12.30;;;7.63;;
47737;SDS011;33502;47.182;27.506;2022-09-09T12:17:20;10.38;;;7.55;;
47737;SDS011;33502;47.182;27.506;2022-09-09T12:19:48;8.75;;;6.93;;
47737;SDS011;33502;47.182;27.506;2022-09-09T12:33:35;10.73;;;6.60;;
47737;SDS011;33502;47.182;27.506;2022-09-09T12:36:03;10.25;;;7.05;;
47737;SDS011;33502;47.182;27.506;2022-09-09T12:41:02;9.10;;;7.10;;
47737;SDS011;33502;47.182;27.506;2022-09-09T12:43:28;12.00;;;6.53;;
47737;SDS011;33502;47.182;27.506;2022-09-09T12:45:58;9.15;;;6.43;;
47737;SDS011;33502;47.182;27.506;2022-09-09T12:48:32;10.70;;;5.85;;
47737;SDS011;33502;47.182;27.506;2022-09-09T12:51:02;8.98;;;6.25;;
47737;SDS011;33502;47.182;27.506;2022-09-09T12:53:35;8.70;;;7.70;;
47737;SDS011;33502;47.182;27.506;2022-09-09T12:56:08;9.75;;;8.05;;
47737;SDS011;33502;47.182;27.506;2022-09-09T12:59:03;7.97;;;7.18;;
47737;SDS011;33502;47.182;27.506;2022-09-09T13:01:30;15.30;;;7.18;;
47737;SDS011;33502;47.182;27.506;2022-09-09T13:03:57;10.68;;;7.10;;
47737;SDS011;33502;47.182;27.506;2022-09-09T13:06:27;7.28;;;6.50;;
47737;SDS011;33502;47.182;27.506;2022-09-09T13:08:58;9.63;;;6.78;;
47737;SDS011;33502;47.182;27.506;2022-09-09T13:11:28;12.48;;;7.22;;
47737;SDS011;33502;47.182;27.506;2022-09-09T13:14:27;13.65;;;6.90;;
47737;SDS011;33502;47.182;27.506;2022-09-09T13:17:02;9.50;;;6.50;;
47737;SDS011;33502;47.182;27.506;2022-09-09T13:19:31;10.32;;;7.25;;
47737;SDS011;33502;47.182;27.506;2022-09-09T13:22:10;13.20;;;7.35;;
47737;SDS011;33502;47.182;27.506;2022-09-09T13:24:38;16.38;;;6.47;;
47737;SDS011;33502;47.182;27.506;2022-09-09T13:27:05;11.25;;;7.30;;
47737;SDS011;33502;47.182;27.506;2022-09-09T13:29:52;10.23;;;6.57;;
47737;SDS011;33502;47.182;27.506;2022-09-09T13:32:22;12.70;;;6.75;;
47737;SDS011;33502;47.182;27.506;2022-09-09T13:34:56;10.98;;;7.72;;
47737;SDS011;33502;47.182;27.506;2022-09-09T13:37:31;13.13;;;7.15;;
47737;SDS011;33502;47.182;27.506;2022-09-09T13:40:00;10.05;;;6.93;;
47737;SDS011;33502;47.182;27.506;2022-09-09T13:42:31;10.68;;;7.20;;
47737;SDS011;33502;47.182;27.506;2022-09-09T13:45:03;10.20;;;7.22;;
47737;SDS011;33502;47.182;27.506;2022-09-09T13:47:33;30.27;;;19.92;;
47737;SDS011;33502;47.182;27.506;2022-09-09T13:52:57;15.27;;;11.50;;
47737;SDS011;33502;47.182;27.506;2022-09-09T13:55:24;20.85;;;12.15;;
47737;SDS011;33502;47.182;27.506;2022-09-09T13:58:02;15.85;;;9.30;;
47737;SDS011;33502;47.182;27.506;2022-09-09T14:00:31;17.52;;;7.72;;
47737;SDS011;33502;47.182;27.506;2022-09-09T14:02:59;9.38;;;7.43;;
47737;SDS011;33502;47.182;27.506;2022-09-09T14:05:29;14.73;;;7.68;;
47737;SDS011;33502;47.182;27.506;2022-09-09T14:07:57;14.80;;;7.20;;
47737;SDS011;33502;47.182;27.506;2022-09-09T14:10:23;8.52;;;6.28;;
47737;SDS011;33502;47.182;27.506;2022-09-09T14:12:49;14.82;;;6.22;;
47737;SDS011;33502;47.182;27.506;2022-09-09T14:15:15;7.30;;;5.82;;
47737;SDS011;33502;47.182;27.506;2022-09-09T14:17:41;9.77;;;6.20;;
47737;SDS011;33502;47.182;27.506;2022-09-09T14:20:07;15.43;;;6.53;;
47737;SDS011;33502;47.182;27.506;2022-09-09T14:22:35;10.55;;;6.10;;
47737;SDS011;33502;47.182;27.506;2022-09-09T14:25:01;9.32;;;6.93;;
47737;SDS011;33502;47.182;27.506;2022-09-09T14:27:28;11.77;;;6.80;;
47737;SDS011;33502;47.182;27.506;2022-09-09T14:29:53;10.43;;;6.75;;
47737;SDS011;33502;47.182;27.506;2022-09-09T14:32:19;13.32;;;7.70;;
47737;SDS011;33502;47.182;27.506;2022-09-09T14:34:46;11.90;;;7.72;;
47737;SDS011;33502;47.182;27.506;2022-09-09T14:37:15;10.65;;;7.00;;
47737;SDS011;33502;47.182;27.506;2022-09-09T14:39:42;11.45;;;7.15;;
47737;SDS011;33502;47.182;27.506;2022-09-09T14:42:12;10.75;;;7.60;;
47737;SDS011;33502;47.182;27.506;2022-09-09T14:44:38;12.60;;;8.48;;
47737;SDS011;33502;47.182;27.506;2022-09-09T14:47:06;11.93;;;7.65;;
47737;SDS011;33502;47.182;27.506;2022-09-09T14:49:35;9.18;;;7.72;;
47737;SDS011;33502;47.182;27.506;2022-09-09T14:52:02;13.02;;;9.27;;
47737;SDS011;33502;47.182;27.506;2022-09-09T14:54:30;16.15;;;9.02;;
47737;SDS011;33502;47.182;27.506;2022-09-09T14:56:58;13.63;;;9.25;;
47737;SDS011;33502;47.182;27.506;2022-09-09T14:59:24;11.70;;;8.20;;
47737;SDS011;33502;47.182;27.506;2022-09-09T15:01:50;11.25;;;8.10;;
47737;SDS011;33502;47.182;27.506;2022-09-09T15:04:16;11.00;;;7.80;;
47737;SDS011;33502;47.182;27.506;2022-09-09T15:06:45;10.20;;;8.07;;
47737;SDS011;33502;47.182;27.506;2022-09-09T15:09:13;9.13;;;8.23;;
47737;SDS011;33502;47.182;27.506;2022-09-09T15:11:40;13.45;;;8.25;;
47737;SDS011;33502;47.182;27.506;2022-09-09T15:14:07;10.48;;;8.65;;
47737;SDS011;33502;47.182;27.506;2022-09-09T15:16:34;9.65;;;8.68;;
47737;SDS011;33502;47.182;27.506;2022-09-09T15:19:02;12.02;;;8.38;;
47737;SDS011;33502;47.182;27.506;2022-09-09T15:21:30;11.48;;;8.18;;
47737;SDS011;33502;47.182;27.506;2022-09-09T15:23:57;13.25;;;9.40;;
47737;SDS011;33502;47.182;27.506;2022-09-09T15:26:23;10.10;;;8.45;;
47737;SDS011;33502;47.182;27.506;2022-09-09T15:28:49;15.32;;;9.60;;
47737;SDS011;33502;47.182;27.506;2022-09-09T15:33:46;13.55;;;10.50;;
47737;SDS011;33502;47.182;27.506;2022-09-09T15:38:44;15.50;;;12.05;;
47737;SDS011;33502;47.182;27.506;2022-09-09T15:41:10;13.68;;;12.02;;
47737;SDS011;33502;47.182;27.506;2022-09-09T15:43:37;16.13;;;13.10;;
47737;SDS011;33502;47.182;27.506;2022-09-09T15:48:42;15.18;;;13.18;;
47737;SDS011;33502;47.182;27.506;2022-09-09T15:51:08;16.33;;;12.90;;
47737;SDS011;33502;47.182;27.506;2022-09-09T15:53:35;17.67;;;13.02;;
47737;SDS011;33502;47.182;27.506;2022-09-09T15:56:00;22.92;;;14.45;;
47737;SDS011;33502;47.182;27.506;2022-09-09T15:58:29;18.50;;;13.60;;
47737;SDS011;33502;47.182;27.506;2022-09-09T16:01:03;20.17;;;14.35;;
47737;SDS011;33502;47.182;27.506;2022-09-09T16:03:33;14.65;;;13.05;;
47737;SDS011;33502;47.182;27.506;2022-09-09T16:06:03;15.45;;;13.27;;
47737;SDS011;33502;47.182;27.506;2022-09-09T16:08:34;18.25;;;14.25;;
47737;SDS011;33502;47.182;27.506;2022-09-09T16:11:04;26.67;;;15.30;;
47737;SDS011;33502;47.182;27.506;2022-09-09T16:13:35;17.03;;;15.03;;
47737;SDS011;33502;47.182;27.506;2022-09-09T16:16:02;16.63;;;14.27;;
47737;SDS011;33502;47.182;27.506;2022-09-09T16:18:33;14.80;;;13.20;;
47737;SDS011;33502;47.182;27.506;2022-09-09T16:21:00;19.55;;;13.85;;
47737;SDS011;33502;47.182;27.506;2022-09-09T16:23:26;17.38;;;15.52;;
47737;SDS011;33502;47.182;27.506;2022-09-09T16:25:53;23.15;;;19.10;;
47737;SDS011;33502;47.182;27.506;2022-09-09T16:28:22;19.67;;;16.92;;
47737;SDS011;33502;47.182;27.506;2022-09-09T16:30:48;17.60;;;15.10;;
47737;SDS011;33502;47.182;27.506;2022-09-09T16:33:15;19.98;;;14.82;;
47737;SDS011;33502;47.182;27.506;2022-09-09T16:35:41;20.70;;;14.13;;
47737;SDS011;33502;47.182;27.506;2022-09-09T16:38:07;16.75;;;14.27;;
47737;SDS011;33502;47.182;27.506;2022-09-09T16:40:33;17.13;;;15.18;;
47737;SDS011;33502;47.182;27.506;2022-09-09T16:43:00;22.23;;;13.93;;
47737;SDS011;33502;47.182;27.506;2022-09-09T16:45:26;16.98;;;15.18;;
47737;SDS011;33502;47.182;27.506;2022-09-09T16:47:52;16.73;;;14.75;;
47737;SDS011;33502;47.182;27.506;2022-09-09T16:50:18;18.00;;;15.30;;
47737;SDS011;33502;47.182;27.506;2022-09-09T16:52:45;17.48;;;15.15;;
47737;SDS011;33502;47.182;27.506;2022-09-09T16:55:10;20.70;;;15.68;;
47737;SDS011;33502;47.182;27.506;2022-09-09T16:57:36;16.85;;;15.05;;
47737;SDS011;33502;47.182;27.506;2022-09-09T17:00:02;17.98;;;15.82;;
47737;SDS011;33502;47.182;27.506;2022-09-09T17:02:31;18.65;;;16.70;;
47737;SDS011;33502;47.182;27.506;2022-09-09T17:04:57;22.33;;;15.85;;